Time;durP1;ratioP1;P1;durP2;ratioP2;P2;SDS_P1;SDS_P2;PMS_P1;PMS_P2;Temp;Humidity;BMP_temperature;BMP_pressure;BME280_temperature;BME280_humidity;BME280_pressure;Samples;Min_cycle;Max_cycle;Signal;HPM_P1;HPM_P2
2021/12/03 00:02:12;;;;;;;6.63;3.17;;;;;;;;;;10476802;28;20026;-83
2021/12/03 00:07:13;;;;;;;9.15;2.55;;;;;;;;;;10463148;28;20021;-83
2021/12/03 00:12:14;;;;;;;3.80;2.60;;;;;;;;;;10455218;28;20029;-83
2021/12/03 00:17:14;;;;;;;4.30;2.40;;;;;;;;;;10456069;28;20110;-83
2021/12/03 00:22:14;;;;;;;2.78;2.00;;;;;;;;;;10455420;28;20110;-83
2021/12/03 00:27:15;;;;;;;4.10;2.30;;;;;;;;;;10456049;28;20037;-83
2021/12/03 00:32:15;;;;;;;4.23;2.43;;;;;;;;;;10531740;23;20490;-83
2021/12/03 00:37:16;;;;;;;3.97;2.50;;;;;;;;;;10463661;28;20454;-81
2021/12/03 00:42:18;;;;;;;5.03;2.50;;;;;;;;;;10459392;28;20104;-82
2021/12/03 00:47:18;;;;;;;3.92;2.53;;;;;;;;;;10424840;28;20491;-82
2021/12/03 00:52:19;;;;;;;5.20;2.50;;;;;;;;;;10459050;28;20064;-81
2021/12/03 00:57:19;;;;;;;5.47;2.55;;;;;;;;;;10463261;28;20071;-82
2021/12/03 01:02:20;;;;;;;3.17;2.30;;;;;;;;;;10464008;28;20025;-82
2021/12/03 01:07:20;;;;;;;3.13;2.43;;;;;;;;;;10463569;28;20461;-81
2021/12/03 01:12:21;;;;;;;5.40;2.50;;;;;;;;;;10463378;28;20033;-82
2021/12/03 01:17:22;;;;;;;2.95;2.15;;;;;;;;;;10462556;28;20472;-81
2021/12/03 01:22:22;;;;;;;2.67;2.05;;;;;;;;;;10461306;28;20040;-81
2021/12/03 01:27:23;;;;;;;3.30;2.22;;;;;;;;;;10462063;28;20532;-81
2021/12/03 01:32:23;;;;;;;6.10;2.47;;;;;;;;;;10461981;28;20127;-82
2021/12/03 01:37:24;;;;;;;6.30;2.43;;;;;;;;;;10462485;28;20783;-82
2021/12/03 01:42:24;;;;;;;2.78;2.15;;;;;;;;;;10462263;28;20434;-81
2021/12/03 01:47:24;;;;;;;4.20;2.40;;;;;;;;;;10460951;28;20036;-82
2021/12/03 01:52:25;;;;;;;3.97;2.40;;;;;;;;;;10461488;28;20790;-81
2021/12/03 01:57:25;;;;;;;3.23;1.90;;;;;;;;;;10461741;28;20455;-82
2021/12/03 02:02:27;;;;;;;4.30;2.05;;;;;;;;;;10460657;28;20443;-82
2021/12/03 02:07:27;;;;;;;3.53;2.15;;;;;;;;;;10444387;28;20388;-82
2021/12/03 02:12:27;;;;;;;3.67;2.20;;;;;;;;;;10419833;28;20112;-82
2021/12/03 02:17:28;;;;;;;5.70;1.97;;;;;;;;;;10419010;28;20453;-82
2021/12/03 02:22:28;;;;;;;3.47;2.35;;;;;;;;;;10452299;28;20460;-82
2021/12/03 02:27:28;;;;;;;3.30;1.87;;;;;;;;;;10459655;28;20376;-82
2021/12/03 02:32:29;;;;;;;2.63;2.13;;;;;;;;;;10460695;28;20470;-82
2021/12/03 02:37:29;;;;;;;3.73;1.93;;;;;;;;;;10451928;28;20455;-82
2021/12/03 02:42:30;;;;;;;2.50;1.83;;;;;;;;;;10418642;28;20064;-82
2021/12/03 02:47:30;;;;;;;3.75;1.90;;;;;;;;;;10418707;28;20465;-82
2021/12/03 02:52:31;;;;;;;3.53;2.38;;;;;;;;;;10454560;28;20072;-82
2021/12/03 02:57:32;;;;;;;3.25;1.85;;;;;;;;;;10458646;28;20024;-82
2021/12/03 03:02:33;;;;;;;1.92;1.60;;;;;;;;;;10458558;28;20063;-82
2021/12/03 03:07:33;;;;;;;3.00;2.07;;;;;;;;;;10458914;28;20029;-82
2021/12/03 03:12:34;;;;;;;2.88;1.80;;;;;;;;;;10460948;28;20432;-82
2021/12/03 03:17:34;;;;;;;4.15;2.30;;;;;;;;;;10461392;28;20384;-82
2021/12/03 03:22:36;;;;;;;2.45;1.85;;;;;;;;;;10460648;28;20112;-82
2021/12/03 03:27:37;;;;;;;3.42;2.17;;;;;;;;;;10457696;28;20032;-82
2021/12/03 03:32:38;;;;;;;3.75;1.90;;;;;;;;;;10457103;28;20451;-82
2021/12/03 03:37:39;;;;;;;5.70;2.67;;;;;;;;;;10458001;28;20477;-81
2021/12/03 03:42:39;;;;;;;2.65;1.92;;;;;;;;;;10457741;28;20029;-81
2021/12/03 03:47:41;;;;;;;3.10;1.80;;;;;;;;;;10456058;28;20028;-82
2021/12/03 03:52:43;;;;;;;2.97;1.88;;;;;;;;;;10456777;28;20043;-82
2021/12/03 03:57:45;;;;;;;2.13;1.80;;;;;;;;;;10457533;28;20040;-82
2021/12/03 04:02:46;;;;;;;4.50;1.80;;;;;;;;;;10457423;28;20044;-82
2021/12/03 04:07:46;;;;;;;2.05;1.80;;;;;;;;;;10456146;28;20032;-82
2021/12/03 04:12:47;;;;;;;3.88;2.15;;;;;;;;;;10456632;28;20044;-82
2021/12/03 04:17:48;;;;;;;1.70;1.60;;;;;;;;;;10456606;28;20041;-82
2021/12/03 04:22:48;;;;;;;3.47;2.10;;;;;;;;;;10456530;28;20037;-81
2021/12/03 04:27:49;;;;;;;1.85;1.67;;;;;;;;;;10456100;28;20377;-82
2021/12/03 04:32:51;;;;;;;2.40;1.85;;;;;;;;;;10457228;28;20057;-82
2021/12/03 04:37:51;;;;;;;1.75;1.65;;;;;;;;;;10456179;28;20056;-82
2021/12/03 04:42:52;;;;;;;1.77;1.63;;;;;;;;;;10456664;28;20425;-82
2021/12/03 04:47:53;;;;;;;2.40;1.80;;;;;;;;;;10455656;28;20040;-82
2021/12/03 04:52:55;;;;;;;2.53;1.70;;;;;;;;;;10456223;28;20499;-82
2021/12/03 04:57:55;;;;;;;2.83;1.83;;;;;;;;;;10455260;28;20029;-82
2021/12/03 05:02:56;;;;;;;1.50;1.40;;;;;;;;;;10455091;28;20469;-82
2021/12/03 05:08:01;;;;;;;2.33;1.80;;;;;;;;;;10455400;28;20036;-81
2021/12/03 05:13:32;;;;;;;2.13;1.70;;;;;;;;;;10455382;28;20158;-81
2021/12/03 05:18:32;;;;;;;2.03;1.58;;;;;;;;;;10433829;28;20496;-81
2021/12/03 05:23:33;;;;;;;1.77;1.67;;;;;;;;;;10421904;28;20038;-82
2021/12/03 05:28:33;;;;;;;3.22;1.73;;;;;;;;;;10421404;28;20038;-81
2021/12/03 05:33:34;;;;;;;1.67;1.58;;;;;;;;;;10451120;28;20029;-82
2021/12/03 05:38:34;;;;;;;1.77;1.60;;;;;;;;;;10462490;28;20431;-82
2021/12/03 05:43:34;;;;;;;2.17;1.40;;;;;;;;;;10462378;28;20025;-81
2021/12/03 05:48:35;;;;;;;2.03;1.70;;;;;;;;;;10461716;28;20118;-82
2021/12/03 05:53:35;;;;;;;3.57;1.50;;;;;;;;;;10461224;28;20426;-82
2021/12/03 05:58:36;;;;;;;1.60;1.50;;;;;;;;;;10460809;28;20434;-82
2021/12/03 06:03:36;;;;;;;1.80;1.50;;;;;;;;;;10461040;28;20897;-83
2021/12/03 06:08:36;;;;;;;3.15;2.72;;;;;;;;;;10460536;28;20040;-86
2021/12/03 06:13:39;;;;;;;3.33;3.00;;;;;;;;;;10450767;28;20021;-85
2021/12/03 06:18:40;;;;;;;5.95;5.55;;;;;;;;;;10432779;28;20458;-83
2021/12/03 06:23:40;;;;;;;5.70;5.40;;;;;;;;;;10419542;28;20025;-82
2021/12/03 06:28:41;;;;;;;5.20;4.80;;;;;;;;;;10458248;28;20517;-85
2021/12/03 06:33:42;;;;;;;2.40;2.20;;;;;;;;;;10459889;28;20116;-82
2021/12/03 06:38:42;;;;;;;2.72;2.50;;;;;;;;;;10432891;28;20465;-84
2021/12/03 06:43:43;;;;;;;7.05;2.50;;;;;;;;;;10422059;28;20128;-83
2021/12/03 06:48:43;;;;;;;2.40;2.20;;;;;;;;;;10440095;28;20115;-82
2021/12/03 06:53:57;;;;;;;3.15;2.50;;;;;;;;;;10459611;28;20510;-82
2021/12/03 06:58:57;;;;;;;10.40;2.67;;;;;;;;;;10426967;28;20385;-82
2021/12/03 07:03:58;;;;;;;46.78;5.10;;;;;;;;;;10458147;28;20037;-83
2021/12/03 07:08:58;;;;;;;5.60;2.20;;;;;;;;;;10457671;28;20033;-84
2021/12/03 07:13:59;;;;;;;3.72;2.22;;;;;;;;;;10447790;28;20962;-95
2021/12/03 07:19:00;;;;;;;13.30;1.98;;;;;;;;;;10436370;28;20428;-92
2021/12/03 07:24:00;;;;;;;14.77;2.70;;;;;;;;;;10456928;28;20123;-86
2021/12/03 07:29:01;;;;;;;14.53;2.83;;;;;;;;;;10455423;28;20049;-89
2021/12/03 07:34:01;;;;;;;8.27;2.58;;;;;;;;;;10454369;28;20505;-89
2021/12/03 07:39:03;;;;;;;5.43;1.98;;;;;;;;;;10441186;28;20037;-90
2021/12/03 07:44:03;;;;;;;3.55;2.17;;;;;;;;;;10412551;28;20083;-90
2021/12/03 07:49:04;;;;;;;13.18;2.88;;;;;;;;;;10434704;28;20426;-91
2021/12/03 07:54:04;;;;;;;7.47;2.33;;;;;;;;;;10439679;28;20370;-91
2021/12/03 07:59:05;;;;;;;8.83;2.10;;;;;;;;;;10418009;28;20029;-90
2021/12/03 08:04:05;;;;;;;11.15;2.42;;;;;;;;;;10436898;28;20528;-89
2021/12/03 08:09:06;;;;;;;3.90;2.40;;;;;;;;;;10433224;28;20033;-91
2021/12/03 08:14:07;;;;;;;4.80;2.58;;;;;;;;;;10455515;28;20993;-91
2021/12/03 08:19:07;;;;;;;3.97;1.90;;;;;;;;;;10457194;28;20048;-91
2021/12/03 08:24:08;;;;;;;7.83;3.03;;;;;;;;;;10456304;28;20473;-90
2021/12/03 08:29:08;;;;;;;5.63;2.67;;;;;;;;;;10453971;28;20509;-88
2021/12/03 08:34:09;;;;;;;10.65;2.45;;;;;;;;;;10454593;28;20421;-90
2021/12/03 08:39:10;;;;;;;4.57;2.33;;;;;;;;;;10455541;28;20029;-89
2021/12/03 08:44:10;;;;;;;6.30;2.37;;;;;;;;;;10456348;28;20041;-89
2021/12/03 08:49:15;;;;;;;6.33;2.53;;;;;;;;;;10455852;28;20533;-90
2021/12/03 08:59:35;;;;;;;10.82;2.70;;;;;;;;;;10462846;28;20029;-91
2021/12/03 09:04:35;;;;;;;5.25;2.88;;;;;;;;;;10462702;28;20099;-90
2021/12/03 09:09:36;;;;;;;3.97;2.33;;;;;;;;;;10463453;28;20548;-87
2021/12/03 09:14:43;;;;;;;6.60;2.50;;;;;;;;;;10461209;28;20025;-88
2021/12/03 09:25:00;;;;;;;3.60;2.47;;;;;;;;;;10464403;28;20033;-92
2021/12/03 09:30:03;;;;;;;6.15;2.92;;;;;;;;;;10465444;28;20091;-94
2021/12/03 09:35:04;;;;;;;5.35;2.50;;;;;;;;;;10461818;28;20037;-94
2021/12/03 09:40:08;;;;;;;3.75;2.40;;;;;;;;;;10462379;28;20029;-94
2021/12/03 09:45:09;;;;;;;3.15;2.53;;;;;;;;;;10442882;28;20095;-95
2021/12/03 09:50:14;;;;;;;6.20;2.60;;;;;;;;;;10425489;28;20592;-94
2021/12/03 09:55:15;;;;;;;3.75;2.20;;;;;;;;;;10420011;28;20036;-94
2021/12/03 10:00:29;;;;;;;7.45;2.25;;;;;;;;;;10422471;28;20064;-95
2021/12/03 10:37:24;;;;;;;7.72;2.55;;;;;;;;;;10444007;28;20111;-86
2021/12/03 10:42:42;;;;;;;3.05;2.38;;;;;;;;;;10427725;28;20067;-92
2021/12/03 11:52:50;;;;;;;4.32;2.58;;;;;;;;;;10417040;28;20033;-87
2021/12/03 12:04:04;;;;;;;4.72;2.10;;;;;;;;;;10415033;28;20034;-86
2021/12/03 12:40:56;;;;;;;3.38;2.20;;;;;;;;;;10410951;28;20477;-82
2021/12/03 13:23:59;;;;;;;3.05;2.05;;;;;;;;;;10411860;28;20409;-82
2021/12/03 14:48:28;;;;;;;8.40;2.30;;;;;;;;;;10419148;28;20034;-84
2021/12/03 15:04:01;;;;;;;14.97;2.40;;;;;;;;;;10416467;28;20029;-82
2021/12/03 15:30:04;;;;;;;33.05;5.07;;;;;;;;;;10414792;28;20511;-83
2021/12/03 15:35:23;;;;;;;21.98;2.80;;;;;;;;;;10413950;28;20405;-82
2021/12/03 15:40:40;;;;;;;13.55;2.50;;;;;;;;;;10415019;28;20033;-80
2021/12/03 16:12:22;;;;;;;7.25;1.98;;;;;;;;;;10361218;28;20045;-82
2021/12/03 16:44:06;;;;;;;4.43;2.15;;;;;;;;;;10414420;28;20033;-82
2021/12/03 16:54:24;;;;;;;5.22;2.50;;;;;;;;;;10398418;28;20038;-82
2021/12/03 16:59:25;;;;;;;4.17;2.43;;;;;;;;;;10414587;28;20080;-82
2021/12/03 17:26:15;;;;;;;7.60;2.72;;;;;;;;;;10417373;28;20033;-81
2021/12/03 17:51:40;;;;;;;5.68;3.30;;;;;;;;;;10419641;28;20034;-81
2021/12/03 17:56:43;;;;;;;4.88;3.28;;;;;;;;;;10416374;28;20060;-81
2021/12/03 18:01:50;;;;;;;11.82;4.20;;;;;;;;;;10400018;28;20145;-81
2021/12/03 18:07:06;;;;;;;7.15;3.85;;;;;;;;;;10418483;28;20421;-80
2021/12/03 18:44:30;;;;;;;;;;;;;;;;;;10416965;28;20065;-80
2021/12/03 18:59:39;;;;;;;8.93;4.18;;;;;;;;;;10407741;28;20451;-79
2021/12/03 19:04:55;;;;;;;6.25;4.30;;;;;;;;;;10409575;28;20362;-80
2021/12/03 19:09:59;;;;;;;10.35;4.47;;;;;;;;;;10408399;28;20104;-79
2021/12/03 19:15:01;;;;;;;7.60;4.25;;;;;;;;;;10408970;28;20024;-79
2021/12/03 19:20:03;;;;;;;10.20;4.03;;;;;;;;;;10407379;28;20037;-79
2021/12/03 19:25:04;;;;;;;11.52;4.80;;;;;;;;;;10412731;28;20028;-78
2021/12/03 19:30:06;;;;;;;9.07;4.40;;;;;;;;;;10408612;28;20045;-78
2021/12/03 19:35:08;;;;;;;9.82;5.07;;;;;;;;;;10413809;28;20048;-78
2021/12/03 19:40:11;;;;;;;12.30;4.50;;;;;;;;;;10416007;28;20461;-79
2021/12/03 19:45:18;;;;;;;6.55;4.28;;;;;;;;;;10405697;28;20095;-79
2021/12/03 19:55:31;;;;;;;10.35;4.57;;;;;;;;;;10409807;28;20041;-80
2021/12/03 20:00:32;;;;;;;7.03;3.60;;;;;;;;;;10428365;28;20069;-79
2021/12/03 20:05:32;;;;;;;11.02;4.30;;;;;;;;;;10415022;28;20865;-79
2021/12/03 20:10:38;;;;;;;7.20;4.40;;;;;;;;;;10412218;28;20033;-80
2021/12/03 20:15:58;;;;;;;13.50;4.45;;;;;;;;;;10390946;28;20447;-79
2021/12/03 20:20:58;;;;;;;7.68;4.50;;;;;;;;;;10391130;28;20037;-79
2021/12/03 20:31:22;;;;;;;;;;;;;;;;;;10411670;28;20461;-78
2021/12/03 20:36:33;;;;;;;12.75;5.03;;;;;;;;;;10413949;28;20390;-79
2021/12/03 20:41:39;;;;;;;9.95;4.20;;;;;;;;;;10398652;28;20033;-79
2021/12/03 20:52:04;;;;;;;10.65;5.50;;;;;;;;;;10421176;28;20421;-80
2021/12/03 21:12:51;;;;;;;25.45;6.05;;;;;;;;;;10421689;28;20033;-81
2021/12/03 21:23:11;;;;;;;55.35;6.07;;;;;;;;;;10421610;28;20030;-79
2021/12/03 21:33:37;;;;;;;21.23;5.55;;;;;;;;;;10421439;28;20104;-77
2021/12/03 21:43:44;;;;;;;27.70;5.65;;;;;;;;;;10422055;28;20061;-78
2021/12/03 21:48:45;;;;;;;25.13;5.00;;;;;;;;;;10420443;28;20072;-79
2021/12/03 21:53:45;;;;;;;25.67;5.47;;;;;;;;;;10421050;28;20469;-78
2021/12/03 21:58:46;;;;;;;16.52;5.07;;;;;;;;;;10421170;28;20377;-78
2021/12/03 22:03:46;;;;;;;17.70;4.93;;;;;;;;;;10420187;28;20196;-77
